sensor_id;sensor_type;location;lat;lon;timestamp;pressure;altitude;pressure_sealevel;temperature;humidity
77019;BME280;66044;53.142;17.962;2023-03-19T00:00:08;100974.49;;;4.39;61.89
77019;BME280;66044;53.142;17.962;2023-03-19T00:02:55;100978.30;;;4.34;61.89
77019;BME280;66044;53.142;17.962;2023-03-19T00:05:22;100977.10;;;4.31;61.72
77019;BME280;66044;53.142;17.962;2023-03-19T00:07:48;100975.27;;;4.27;61.92
77019;BME280;66044;53.142;17.962;2023-03-19T00:10:14;100979.64;;;4.24;62.01
77019;BME280;66044;53.142;17.962;2023-03-19T00:12:41;100978.45;;;4.20;62.06
77019;BME280;66044;53.142;17.962;2023-03-19T00:15:08;100979.89;;;4.16;62.16
77019;BME280;66044;53.142;17.962;2023-03-19T00:17:40;100979.73;;;4.12;62.28
77019;BME280;66044;53.142;17.962;2023-03-19T00:20:08;100982.23;;;4.06;62.56
77019;BME280;66044;53.142;17.962;2023-03-19T00:22:36;100983.43;;;4.02;62.56
77019;BME280;66044;53.142;17.962;2023-03-19T00:25:03;100978.64;;;3.97;62.60
77019;BME280;66044;53.142;17.962;2023-03-19T00:27:30;100978.11;;;3.93;62.57
77019;BME280;66044;53.142;17.962;2023-03-19T00:29:56;100976.28;;;3.88;62.47
77019;BME280;66044;53.142;17.962;2023-03-19T00:32:23;100977.40;;;3.85;62.60
77019;BME280;66044;53.142;17.962;2023-03-19T00:34:50;100977.48;;;3.81;62.88
77019;BME280;66044;53.142;17.962;2023-03-19T00:37:17;100980.31;;;3.76;62.93
77019;BME280;66044;53.142;17.962;2023-03-19T00:39:44;100980.81;;;3.71;63.06
77019;BME280;66044;53.142;17.962;2023-03-19T00:42:10;100983.32;;;3.68;62.98
77019;BME280;66044;53.142;17.962;2023-03-19T00:44:37;100986.47;;;3.67;62.82
77019;BME280;66044;53.142;17.962;2023-03-19T00:47:03;100984.19;;;3.66;63.26
77019;BME280;66044;53.142;17.962;2023-03-19T00:49:32;100985.67;;;3.67;63.40
77019;BME280;66044;53.142;17.962;2023-03-19T00:51:58;100980.50;;;3.69;63.22
77019;BME280;66044;53.142;17.962;2023-03-19T00:54:24;100979.11;;;3.73;63.43
77019;BME280;66044;53.142;17.962;2023-03-19T00:56:51;100979.73;;;3.73;63.38
77019;BME280;66044;53.142;17.962;2023-03-19T00:59:17;100976.35;;;3.73;63.63
77019;BME280;66044;53.142;17.962;2023-03-19T01:01:44;100980.81;;;3.71;63.50
77019;BME280;66044;53.142;17.962;2023-03-19T01:04:10;100975.45;;;3.70;63.62
77019;BME280;66044;53.142;17.962;2023-03-19T01:06:38;100981.15;;;3.68;63.82
77019;BME280;66044;53.142;17.962;2023-03-19T01:09:04;100982.48;;;3.67;63.60
77019;BME280;66044;53.142;17.962;2023-03-19T01:11:31;100983.91;;;3.66;63.56
77019;BME280;66044;53.142;17.962;2023-03-19T01:13:58;100985.98;;;3.64;63.59
77019;BME280;66044;53.142;17.962;2023-03-19T01:16:24;100991.31;;;3.62;63.72
77019;BME280;66044;53.142;17.962;2023-03-19T01:18:51;100991.92;;;3.58;63.69
77019;BME280;66044;53.142;17.962;2023-03-19T01:21:19;100987.88;;;3.54;63.70
77019;BME280;66044;53.142;17.962;2023-03-19T01:23:46;100985.14;;;3.50;63.85
77019;BME280;66044;53.142;17.962;2023-03-19T01:26:13;100982.48;;;3.46;63.86
77019;BME280;66044;53.142;17.962;2023-03-19T01:28:39;100982.02;;;3.44;63.91
77019;BME280;66044;53.142;17.962;2023-03-19T01:31:07;100979.86;;;3.41;64.06
77019;BME280;66044;53.142;17.962;2023-03-19T01:33:34;100981.08;;;3.39;64.11
77019;BME280;66044;53.142;17.962;2023-03-19T01:36:03;100983.17;;;3.37;64.08
77019;BME280;66044;53.142;17.962;2023-03-19T01:38:31;100982.27;;;3.35;63.96
77019;BME280;66044;53.142;17.962;2023-03-19T01:40:57;100983.59;;;3.37;64.22
77019;BME280;66044;53.142;17.962;2023-03-19T01:43:27;100986.33;;;3.39;64.18
77019;BME280;66044;53.142;17.962;2023-03-19T01:46:29;100987.13;;;3.42;64.18
77019;BME280;66044;53.142;17.962;2023-03-19T01:49:00;100983.02;;;3.47;64.21
77019;BME280;66044;53.142;17.962;2023-03-19T01:51:31;100983.07;;;3.49;64.33
77019;BME280;66044;53.142;17.962;2023-03-19T01:54:02;100986.84;;;3.51;64.40
77019;BME280;66044;53.142;17.962;2023-03-19T01:56:34;100986.89;;;3.52;64.38
77019;BME280;66044;53.142;17.962;2023-03-19T01:59:07;100991.15;;;3.52;64.43
77019;BME280;66044;53.142;17.962;2023-03-19T02:01:39;100989.17;;;3.52;64.45
77019;BME280;66044;53.142;17.962;2023-03-19T02:04:08;100988.76;;;3.53;64.47
77019;BME280;66044;53.142;17.962;2023-03-19T02:06:36;100985.62;;;3.52;64.35
77019;BME280;66044;53.142;17.962;2023-03-19T02:09:03;100977.18;;;3.52;64.42
77019;BME280;66044;53.142;17.962;2023-03-19T02:11:29;100978.73;;;3.52;64.55
77019;BME280;66044;53.142;17.962;2023-03-19T02:13:57;100973.99;;;3.47;64.45
77019;BME280;66044;53.142;17.962;2023-03-19T02:16:23;100972.52;;;3.43;64.51
77019;BME280;66044;53.142;17.962;2023-03-19T02:18:50;100969.55;;;3.42;64.55
77019;BME280;66044;53.142;17.962;2023-03-19T02:21:19;100968.48;;;3.41;64.48
77019;BME280;66044;53.142;17.962;2023-03-19T02:23:52;100974.28;;;3.40;64.47
77019;BME280;66044;53.142;17.962;2023-03-19T02:26:22;100968.33;;;3.40;64.53
77019;BME280;66044;53.142;17.962;2023-03-19T02:28:51;100968.96;;;3.39;64.71
77019;BME280;66044;53.142;17.962;2023-03-19T02:31:18;100967.74;;;3.39;64.73
77019;BME280;66044;53.142;17.962;2023-03-19T02:34:15;100967.38;;;3.38;64.84
77019;BME280;66044;53.142;17.962;2023-03-19T02:37:05;100965.35;;;3.38;64.82
77019;BME280;66044;53.142;17.962;2023-03-19T02:39:50;100966.95;;;3.42;64.77
77019;BME280;66044;53.142;17.962;2023-03-19T02:42:21;100972.82;;;3.48;64.67
77019;BME280;66044;53.142;17.962;2023-03-19T02:44:49;100973.65;;;3.55;64.68
77019;BME280;66044;53.142;17.962;2023-03-19T02:47:16;100976.35;;;3.60;64.73
77019;BME280;66044;53.142;17.962;2023-03-19T02:49:43;100973.24;;;3.63;64.79
77019;BME280;66044;53.142;17.962;2023-03-19T02:52:10;100978.08;;;3.64;64.82
77019;BME280;66044;53.142;17.962;2023-03-19T02:54:36;100977.70;;;3.65;64.78
77019;BME280;66044;53.142;17.962;2023-03-19T02:57:04;100975.41;;;3.66;64.85
77019;BME280;66044;53.142;17.962;2023-03-19T02:59:30;100975.37;;;3.65;64.92
77019;BME280;66044;53.142;17.962;2023-03-19T03:01:57;100977.17;;;3.66;64.82
77019;BME280;66044;53.142;17.962;2023-03-19T03:04:23;100978.61;;;3.65;64.79
77019;BME280;66044;53.142;17.962;2023-03-19T03:06:50;100981.11;;;3.65;64.69
77019;BME280;66044;53.142;17.962;2023-03-19T03:09:16;100983.86;;;3.64;64.67
77019;BME280;66044;53.142;17.962;2023-03-19T03:11:43;100981.05;;;3.63;64.69
77019;BME280;66044;53.142;17.962;2023-03-19T03:14:10;100979.90;;;3.60;64.62
77019;BME280;66044;53.142;17.962;2023-03-19T03:16:37;100979.59;;;3.58;64.70
77019;BME280;66044;53.142;17.962;2023-03-19T03:19:04;100980.23;;;3.56;64.72
77019;BME280;66044;53.142;17.962;2023-03-19T03:21:30;100983.66;;;3.53;64.85
77019;BME280;66044;53.142;17.962;2023-03-19T03:23:57;100982.48;;;3.48;64.84
77019;BME280;66044;53.142;17.962;2023-03-19T03:26:24;100978.94;;;3.46;64.72
77019;BME280;66044;53.142;17.962;2023-03-19T03:28:50;100981.55;;;3.45;64.83
77019;BME280;66044;53.142;17.962;2023-03-19T03:31:17;100987.75;;;3.46;64.76
77019;BME280;66044;53.142;17.962;2023-03-19T03:33:44;100988.27;;;3.47;64.67
77019;BME280;66044;53.142;17.962;2023-03-19T03:36:11;100988.21;;;3.48;64.67
77019;BME280;66044;53.142;17.962;2023-03-19T03:38:38;100986.47;;;3.50;64.59
77019;BME280;66044;53.142;17.962;2023-03-19T03:41:05;100984.80;;;3.55;64.71
77019;BME280;66044;53.142;17.962;2023-03-19T03:43:31;100990.21;;;3.59;64.67
77019;BME280;66044;53.142;17.962;2023-03-19T03:45:59;100993.56;;;3.61;64.63
77019;BME280;66044;53.142;17.962;2023-03-19T03:48:25;100989.48;;;3.58;64.69
77019;BME280;66044;53.142;17.962;2023-03-19T03:50:52;100987.25;;;3.56;64.68
77019;BME280;66044;53.142;17.962;2023-03-19T03:53:18;100986.92;;;3.56;64.86
77019;BME280;66044;53.142;17.962;2023-03-19T03:55:45;100981.56;;;3.55;64.78
77019;BME280;66044;53.142;17.962;2023-03-19T03:58:12;100982.20;;;3.54;64.77
77019;BME280;66044;53.142;17.962;2023-03-19T04:00:38;100980.05;;;3.51;64.83
77019;BME280;66044;53.142;17.962;2023-03-19T04:03:05;100982.80;;;3.48;64.75
77019;BME280;66044;53.142;17.962;2023-03-19T04:05:32;100979.38;;;3.43;64.77
77019;BME280;66044;53.142;17.962;2023-03-19T04:07:58;100981.71;;;3.39;64.80
77019;BME280;66044;53.142;17.962;2023-03-19T04:10:25;100983.00;;;3.36;64.80
77019;BME280;66044;53.142;17.962;2023-03-19T04:12:51;100988.52;;;3.33;65.00
77019;BME280;66044;53.142;17.962;2023-03-19T04:15:18;100989.50;;;3.29;65.03
77019;BME280;66044;53.142;17.962;2023-03-19T04:17:45;100990.30;;;3.26;65.14
77019;BME280;66044;53.142;17.962;2023-03-19T04:20:12;100995.35;;;3.22;65.26
77019;BME280;66044;53.142;17.962;2023-03-19T04:22:41;100995.08;;;3.19;65.27
77019;BME280;66044;53.142;17.962;2023-03-19T04:25:09;100993.86;;;3.16;65.39
77019;BME280;66044;53.142;17.962;2023-03-19T04:27:44;100992.00;;;3.17;65.46
77019;BME280;66044;53.142;17.962;2023-03-19T04:30:12;100994.24;;;3.20;65.55
77019;BME280;66044;53.142;17.962;2023-03-19T04:32:38;100997.91;;;3.22;65.47
77019;BME280;66044;53.142;17.962;2023-03-19T04:35:05;101002.40;;;3.24;65.46
77019;BME280;66044;53.142;17.962;2023-03-19T04:37:32;101003.61;;;3.26;65.54
77019;BME280;66044;53.142;17.962;2023-03-19T04:39:59;101008.50;;;3.28;65.57
77019;BME280;66044;53.142;17.962;2023-03-19T04:42:25;101007.60;;;3.27;65.54
77019;BME280;66044;53.142;17.962;2023-03-19T04:44:52;101012.70;;;3.27;65.59
77019;BME280;66044;53.142;17.962;2023-03-19T04:47:19;101010.42;;;3.26;65.41
77019;BME280;66044;53.142;17.962;2023-03-19T04:49:45;101012.96;;;3.26;65.50
77019;BME280;66044;53.142;17.962;2023-03-19T04:52:12;101010.95;;;3.27;65.50
77019;BME280;66044;53.142;17.962;2023-03-19T04:54:39;101009.73;;;3.27;65.57
77019;BME280;66044;53.142;17.962;2023-03-19T04:57:06;101005.48;;;3.26;65.66
77019;BME280;66044;53.142;17.962;2023-03-19T04:59:32;101007.27;;;3.25;65.55
77019;BME280;66044;53.142;17.962;2023-03-19T05:01:58;101004.52;;;3.24;65.60
77019;BME280;66044;53.142;17.962;2023-03-19T05:04:25;101009.52;;;3.25;65.63
77019;BME280;66044;53.142;17.962;2023-03-19T05:06:52;101009.56;;;3.26;65.53
77019;BME280;66044;53.142;17.962;2023-03-19T05:09:19;101006.48;;;3.27;65.65
77019;BME280;66044;53.142;17.962;2023-03-19T05:11:45;101006.60;;;3.29;65.60
77019;BME280;66044;53.142;17.962;2023-03-19T05:14:12;101009.13;;;3.32;65.52
77019;BME280;66044;53.142;17.962;2023-03-19T05:16:38;101010.82;;;3.40;65.49
77019;BME280;66044;53.142;17.962;2023-03-19T05:19:05;101010.95;;;3.50;65.32
77019;BME280;66044;53.142;17.962;2023-03-19T05:21:32;101013.48;;;3.60;65.38
77019;BME280;66044;53.142;17.962;2023-03-19T05:23:58;101012.80;;;3.68;65.29
77019;BME280;66044;53.142;17.962;2023-03-19T05:26:25;101010.60;;;3.77;65.24
77019;BME280;66044;53.142;17.962;2023-03-19T05:28:52;101006.42;;;3.85;65.23
77019;BME280;66044;53.142;17.962;2023-03-19T05:31:18;101008.30;;;3.93;65.10
77019;BME280;66044;53.142;17.962;2023-03-19T05:33:45;101004.45;;;3.97;64.90
77019;BME280;66044;53.142;17.962;2023-03-19T05:36:11;101001.50;;;4.01;64.94
77019;BME280;66044;53.142;17.962;2023-03-19T05:38:38;101005.11;;;4.05;64.82
77019;BME280;66044;53.142;17.962;2023-03-19T05:41:06;101005.23;;;4.12;64.83
77019;BME280;66044;53.142;17.962;2023-03-19T05:43:33;101004.77;;;4.18;64.71
77019;BME280;66044;53.142;17.962;2023-03-19T05:45:59;101009.13;;;4.26;64.67
77019;BME280;66044;53.142;17.962;2023-03-19T05:48:26;101012.52;;;4.37;64.50
77019;BME280;66044;53.142;17.962;2023-03-19T05:50:53;101013.64;;;4.48;64.20
77019;BME280;66044;53.142;17.962;2023-03-19T05:53:20;101012.02;;;4.57;64.03
77019;BME280;66044;53.142;17.962;2023-03-19T05:55:48;101010.96;;;4.66;63.84
77019;BME280;66044;53.142;17.962;2023-03-19T05:58:14;101017.53;;;4.75;63.78
77019;BME280;66044;53.142;17.962;2023-03-19T06:00:42;101024.19;;;4.82;63.57
77019;BME280;66044;53.142;17.962;2023-03-19T06:03:08;101026.32;;;4.89;63.51
77019;BME280;66044;53.142;17.962;2023-03-19T06:05:35;101032.23;;;4.94;63.30
77019;BME280;66044;53.142;17.962;2023-03-19T06:08:01;101032.77;;;4.99;63.29
77019;BME280;66044;53.142;17.962;2023-03-19T06:10:28;101036.52;;;5.05;63.26
77019;BME280;66044;53.142;17.962;2023-03-19T06:12:54;101040.12;;;5.13;63.29
77019;BME280;66044;53.142;17.962;2023-03-19T06:15:21;101040.84;;;5.27;63.04
77019;BME280;66044;53.142;17.962;2023-03-19T06:17:47;101044.20;;;5.43;62.75
77019;BME280;66044;53.142;17.962;2023-03-19T06:20:14;101043.52;;;5.57;62.74
77019;BME280;66044;53.142;17.962;2023-03-19T06:22:40;101043.52;;;5.73;62.50
77019;BME280;66044;53.142;17.962;2023-03-19T06:25:07;101049.42;;;5.90;62.17
77019;BME280;66044;53.142;17.962;2023-03-19T06:27:33;101052.36;;;6.07;62.02
77019;BME280;66044;53.142;17.962;2023-03-19T06:30:00;101055.73;;;6.27;61.83
77019;BME280;66044;53.142;17.962;2023-03-19T06:32:26;101054.84;;;6.46;61.65
77019;BME280;66044;53.142;17.962;2023-03-19T06:34:53;101058.38;;;6.67;61.41
77019;BME280;66044;53.142;17.962;2023-03-19T06:37:21;101060.92;;;6.92;61.02
77019;BME280;66044;53.142;17.962;2023-03-19T06:39:47;101058.63;;;7.43;60.42
77019;BME280;66044;53.142;17.962;2023-03-19T06:42:14;101060.77;;;7.94;59.64
77019;BME280;66044;53.142;17.962;2023-03-19T06:44:41;101059.79;;;8.27;59.24
77019;BME280;66044;53.142;17.962;2023-03-19T06:47:07;101060.97;;;8.66;58.45
77019;BME280;66044;53.142;17.962;2023-03-19T06:49:34;101063.30;;;9.12;57.86
77019;BME280;66044;53.142;17.962;2023-03-19T06:52:01;101068.61;;;9.48;57.17
77019;BME280;66044;53.142;17.962;2023-03-19T06:54:27;101075.84;;;10.09;56.41
77019;BME280;66044;53.142;17.962;2023-03-19T06:56:54;101083.88;;;11.01;54.86
77019;BME280;66044;53.142;17.962;2023-03-19T06:59:20;101086.84;;;12.19;53.49
77019;BME280;66044;53.142;17.962;2023-03-19T07:01:47;101091.83;;;13.47;52.04
77019;BME280;66044;53.142;17.962;2023-03-19T07:04:13;101094.73;;;14.92;50.00
77019;BME280;66044;53.142;17.962;2023-03-19T07:06:40;101102.67;;;16.23;48.11
77019;BME280;66044;53.142;17.962;2023-03-19T07:09:06;101100.98;;;17.42;46.42
77019;BME280;66044;53.142;17.962;2023-03-19T07:11:33;101103.56;;;18.38;44.45
77019;BME280;66044;53.142;17.962;2023-03-19T07:13:59;101102.58;;;19.20;43.25
77019;BME280;66044;53.142;17.962;2023-03-19T07:16:26;101102.56;;;19.93;41.93
77019;BME280;66044;53.142;17.962;2023-03-19T07:18:52;101103.65;;;20.51;40.46
77019;BME280;66044;53.142;17.962;2023-03-19T07:21:19;101107.57;;;20.89;38.92
77019;BME280;66044;53.142;17.962;2023-03-19T07:23:46;101106.13;;;21.23;37.81
77019;BME280;66044;53.142;17.962;2023-03-19T07:26:12;101105.10;;;21.74;37.06
77019;BME280;66044;53.142;17.962;2023-03-19T07:28:38;101104.79;;;22.45;36.14
77019;BME280;66044;53.142;17.962;2023-03-19T07:31:05;101105.29;;;23.02;35.13
77019;BME280;66044;53.142;17.962;2023-03-19T07:33:32;101108.39;;;23.69;34.08
77019;BME280;66044;53.142;17.962;2023-03-19T07:35:58;101113.75;;;24.57;33.35
77019;BME280;66044;53.142;17.962;2023-03-19T07:38:25;101118.61;;;25.58;32.50
77019;BME280;66044;53.142;17.962;2023-03-19T07:40:51;101115.29;;;26.50;31.15
77019;BME280;66044;53.142;17.962;2023-03-19T07:43:18;101109.88;;;27.37;29.89
77019;BME280;66044;53.142;17.962;2023-03-19T07:45:44;101113.98;;;28.46;29.02
77019;BME280;66044;53.142;17.962;2023-03-19T07:48:11;101117.62;;;29.52;28.22
77019;BME280;66044;53.142;17.962;2023-03-19T07:50:38;101119.36;;;30.54;27.41
77019;BME280;66044;53.142;17.962;2023-03-19T07:53:04;101123.95;;;31.52;26.03
77019;BME280;66044;53.142;17.962;2023-03-19T07:55:31;101125.48;;;32.34;25.41
77019;BME280;66044;53.142;17.962;2023-03-19T07:57:58;101130.72;;;33.04;23.99
77019;BME280;66044;53.142;17.962;2023-03-19T08:00:25;101128.11;;;33.55;23.23
77019;BME280;66044;53.142;17.962;2023-03-19T08:02:51;101133.23;;;33.76;22.21
77019;BME280;66044;53.142;17.962;2023-03-19T08:05:18;101130.74;;;33.65;21.89
77019;BME280;66044;53.142;17.962;2023-03-19T08:07:44;101131.98;;;33.13;21.45
77019;BME280;66044;53.142;17.962;2023-03-19T08:10:11;101129.14;;;32.72;21.42
77019;BME280;66044;53.142;17.962;2023-03-19T08:12:37;101125.27;;;32.48;21.21
77019;BME280;66044;53.142;17.962;2023-03-19T08:15:08;101123.26;;;32.45;21.13
77019;BME280;66044;53.142;17.962;2023-03-19T08:17:36;101119.22;;;32.41;21.20
77019;BME280;66044;53.142;17.962;2023-03-19T08:20:07;101113.13;;;32.13;20.75
77019;BME280;66044;53.142;17.962;2023-03-19T08:22:37;101111.94;;;32.15;21.04
77019;BME280;66044;53.142;17.962;2023-03-19T08:25:05;101110.42;;;32.06;20.70
77019;BME280;66044;53.142;17.962;2023-03-19T08:27:32;101108.89;;;32.35;20.85
77019;BME280;66044;53.142;17.962;2023-03-19T08:30:02;101105.70;;;32.92;20.39
77019;BME280;66044;53.142;17.962;2023-03-19T08:32:29;101106.70;;;33.59;20.43
77019;BME280;66044;53.142;17.962;2023-03-19T08:34:55;101108.44;;;34.23;20.36
77019;BME280;66044;53.142;17.962;2023-03-19T08:37:22;101109.88;;;34.64;19.88
77019;BME280;66044;53.142;17.962;2023-03-19T08:39:49;101108.29;;;34.74;19.28
77019;BME280;66044;53.142;17.962;2023-03-19T08:42:18;101106.21;;;34.38;18.71
77019;BME280;66044;53.142;17.962;2023-03-19T08:44:45;101100.27;;;34.14;19.09
77019;BME280;66044;53.142;17.962;2023-03-19T08:47:12;101096.02;;;33.69;18.95
77019;BME280;66044;53.142;17.962;2023-03-19T08:49:38;101096.45;;;33.09;19.44
77019;BME280;66044;53.142;17.962;2023-03-19T08:52:05;101097.23;;;32.95;19.77
77019;BME280;66044;53.142;17.962;2023-03-19T08:54:32;101097.11;;;32.63;19.58
77019;BME280;66044;53.142;17.962;2023-03-19T08:56:59;101095.05;;;31.92;19.67
77019;BME280;66044;53.142;17.962;2023-03-19T08:59:27;101092.17;;;30.80;19.81
77019;BME280;66044;53.142;17.962;2023-03-19T09:01:53;101089.34;;;29.66;20.35
77019;BME280;66044;53.142;17.962;2023-03-19T09:04:20;101085.05;;;28.21;21.10
77019;BME280;66044;53.142;17.962;2023-03-19T09:06:48;101078.77;;;26.64;22.36
77019;BME280;66044;53.142;17.962;2023-03-19T09:09:18;101076.93;;;25.00;23.70
77019;BME280;66044;53.142;17.962;2023-03-19T09:11:45;101073.52;;;23.69;24.96
77019;BME280;66044;53.142;17.962;2023-03-19T09:14:12;101071.70;;;22.85;25.94
77019;BME280;66044;53.142;17.962;2023-03-19T09:16:39;101066.31;;;21.98;26.96
77019;BME280;66044;53.142;17.962;2023-03-19T09:19:05;101062.88;;;21.30;27.83
77019;BME280;66044;53.142;17.962;2023-03-19T09:21:32;101064.39;;;20.83;28.44
77019;BME280;66044;53.142;17.962;2023-03-19T09:23:59;101061.48;;;20.53;28.95
77019;BME280;66044;53.142;17.962;2023-03-19T09:26:26;101061.11;;;20.18;29.45
77019;BME280;66044;53.142;17.962;2023-03-19T09:28:53;101059.86;;;19.92;29.95
77019;BME280;66044;53.142;17.962;2023-03-19T09:31:19;101058.49;;;19.57;30.37
77019;BME280;66044;53.142;17.962;2023-03-19T09:33:46;101056.25;;;19.18;30.84
77019;BME280;66044;53.142;17.962;2023-03-19T09:36:13;101051.64;;;18.85;31.41
77019;BME280;66044;53.142;17.962;2023-03-19T09:38:39;101050.02;;;18.56;31.77
77019;BME280;66044;53.142;17.962;2023-03-19T09:41:09;101049.89;;;18.40;32.16
77019;BME280;66044;53.142;17.962;2023-03-19T09:43:58;101055.02;;;18.12;32.48
77019;BME280;66044;53.142;17.962;2023-03-19T09:51:49;101049.52;;;17.66;33.71
77019;BME280;66044;53.142;17.962;2023-03-19T09:57:02;101046.73;;;17.36;34.50
77019;BME280;66044;53.142;17.962;2023-03-19T09:59:29;101045.20;;;17.24;34.54
77019;BME280;66044;53.142;17.962;2023-03-19T10:02:05;101043.33;;;17.01;34.97
77019;BME280;66044;53.142;17.962;2023-03-19T10:04:41;101044.33;;;16.89;35.38
77019;BME280;66044;53.142;17.962;2023-03-19T10:12:52;101039.93;;;16.98;35.67
77019;BME280;66044;53.142;17.962;2023-03-19T10:15:29;101039.84;;;16.97;36.05
77019;BME280;66044;53.142;17.962;2023-03-19T10:21:21;101039.48;;;17.08;36.22
77019;BME280;66044;53.142;17.962;2023-03-19T10:23:56;101044.05;;;17.20;36.38
77019;BME280;66044;53.142;17.962;2023-03-19T10:26:31;101042.31;;;17.23;36.04
77019;BME280;66044;53.142;17.962;2023-03-19T10:29:05;101042.84;;;17.22;35.78
77019;BME280;66044;53.142;17.962;2023-03-19T10:31:40;101037.55;;;17.20;35.86
77019;BME280;66044;53.142;17.962;2023-03-19T10:36:46;101035.17;;;17.15;35.87
77019;BME280;66044;53.142;17.962;2023-03-19T10:39:15;101030.10;;;17.12;36.09
77019;BME280;66044;53.142;17.962;2023-03-19T10:42:15;101032.65;;;17.11;36.39
77019;BME280;66044;53.142;17.962;2023-03-19T10:44:50;101030.15;;;17.16;36.26
77019;BME280;66044;53.142;17.962;2023-03-19T10:47:24;101033.26;;;17.15;36.22
77019;BME280;66044;53.142;17.962;2023-03-19T10:49:51;101028.67;;;17.11;36.24
77019;BME280;66044;53.142;17.962;2023-03-19T10:52:21;101026.09;;;17.09;36.63
77019;BME280;66044;53.142;17.962;2023-03-19T10:54:54;101022.30;;;17.13;36.48
77019;BME280;66044;53.142;17.962;2023-03-19T10:57:26;101023.67;;;17.08;36.48
77019;BME280;66044;53.142;17.962;2023-03-19T10:59:53;101021.08;;;16.98;36.66
77019;BME280;66044;53.142;17.962;2023-03-19T11:02:24;101017.28;;;16.89;36.80
77019;BME280;66044;53.142;17.962;2023-03-19T11:07:39;101014.70;;;16.76;36.89
77019;BME280;66044;53.142;17.962;2023-03-19T11:10:13;101016.37;;;16.74;36.96
77019;BME280;66044;53.142;17.962;2023-03-19T11:12:47;101014.30;;;16.72;36.84
77019;BME280;66044;53.142;17.962;2023-03-19T11:15:20;101011.80;;;16.74;36.88
77019;BME280;66044;53.142;17.962;2023-03-19T11:17:54;101013.56;;;16.73;36.88
77019;BME280;66044;53.142;17.962;2023-03-19T11:20:33;101011.63;;;16.78;36.94
77019;BME280;66044;53.142;17.962;2023-03-19T11:23:01;101012.54;;;16.85;36.78
77019;BME280;66044;53.142;17.962;2023-03-19T11:25:36;101008.64;;;16.87;36.65
77019;BME280;66044;53.142;17.962;2023-03-19T11:28:10;101004.44;;;16.90;36.52
77019;BME280;66044;53.142;17.962;2023-03-19T11:39:17;101001.21;;;16.85;36.74
77019;BME280;66044;53.142;17.962;2023-03-19T11:45:11;100997.59;;;16.86;36.78
77019;BME280;66044;53.142;17.962;2023-03-19T11:50:29;100992.80;;;16.94;36.57
77019;BME280;66044;53.142;17.962;2023-03-19T11:53:41;100994.09;;;17.01;36.48
77019;BME280;66044;53.142;17.962;2023-03-19T12:01:49;100996.89;;;17.02;36.72
77019;BME280;66044;53.142;17.962;2023-03-19T12:04:29;100999.08;;;17.12;36.68
77019;BME280;66044;53.142;17.962;2023-03-19T12:07:27;100992.16;;;17.15;36.69
77019;BME280;66044;53.142;17.962;2023-03-19T12:10:06;100998.52;;;17.24;36.97
77019;BME280;66044;53.142;17.962;2023-03-19T12:18:21;100993.00;;;17.29;37.39
77019;BME280;66044;53.142;17.962;2023-03-19T12:23:35;100986.64;;;17.38;37.84
77019;BME280;66044;53.142;17.962;2023-03-19T12:26:10;100983.71;;;17.34;38.16
77019;BME280;66044;53.142;17.962;2023-03-19T12:31:36;100980.58;;;17.48;38.59
77019;BME280;66044;53.142;17.962;2023-03-19T12:34:29;100977.45;;;17.56;38.33
77019;BME280;66044;53.142;17.962;2023-03-19T12:39:36;100967.88;;;17.49;38.24
77019;BME280;66044;53.142;17.962;2023-03-19T12:42:04;100967.45;;;17.42;38.34
77019;BME280;66044;53.142;17.962;2023-03-19T12:44:38;100962.09;;;17.36;38.44
77019;BME280;66044;53.142;17.962;2023-03-19T12:49:50;100962.13;;;17.34;38.48
77019;BME280;66044;53.142;17.962;2023-03-19T12:52:37;100962.68;;;17.39;38.36
77019;BME280;66044;53.142;17.962;2023-03-19T12:55:21;100963.42;;;17.37;38.17
77019;BME280;66044;53.142;17.962;2023-03-19T12:57:55;100965.09;;;17.34;38.12
77019;BME280;66044;53.142;17.962;2023-03-19T13:03:36;100972.79;;;17.35;38.31
77019;BME280;66044;53.142;17.962;2023-03-19T13:05:57;100969.86;;;17.36;38.27
77019;BME280;66044;53.142;17.962;2023-03-19T13:08:36;100974.79;;;17.34;38.14
77019;BME280;66044;53.142;17.962;2023-03-19T13:11:13;100973.39;;;17.30;38.29
77019;BME280;66044;53.142;17.962;2023-03-19T13:21:59;100962.81;;;17.10;38.58
77019;BME280;66044;53.142;17.962;2023-03-19T13:24:33;100960.95;;;17.05;38.42
77019;BME280;66044;53.142;17.962;2023-03-19T13:27:01;100960.97;;;17.06;38.48
77019;BME280;66044;53.142;17.962;2023-03-19T13:29:30;100966.98;;;17.08;38.48
77019;BME280;66044;53.142;17.962;2023-03-19T13:34:33;100968.11;;;17.06;38.73
77019;BME280;66044;53.142;17.962;2023-03-19T13:37:14;100971.96;;;17.05;38.96
77019;BME280;66044;53.142;17.962;2023-03-19T13:39:42;100963.49;;;17.00;38.48
77019;BME280;66044;53.142;17.962;2023-03-19T13:42:36;100963.69;;;16.97;38.80
77019;BME280;66044;53.142;17.962;2023-03-19T13:45:34;100964.20;;;16.95;39.07
77019;BME280;66044;53.142;17.962;2023-03-19T13:55:56;100964.91;;;16.79;39.75
77019;BME280;66044;53.142;17.962;2023-03-19T13:58:26;100966.67;;;16.74;39.99
77019;BME280;66044;53.142;17.962;2023-03-19T14:03:59;100961.71;;;16.61;40.38
77019;BME280;66044;53.142;17.962;2023-03-19T14:06:33;100962.20;;;16.56;40.55
77019;BME280;66044;53.142;17.962;2023-03-19T14:09:02;100958.02;;;16.49;40.51
77019;BME280;66044;53.142;17.962;2023-03-19T14:11:32;100958.98;;;16.45;40.80
77019;BME280;66044;53.142;17.962;2023-03-19T14:14:04;100952.80;;;16.43;40.80
77019;BME280;66044;53.142;17.962;2023-03-19T14:16:37;100956.48;;;16.44;40.96
77019;BME280;66044;53.142;17.962;2023-03-19T14:19:14;100952.92;;;16.44;41.01